Time;durP1;ratioP1;P1;durP2;ratioP2;P2;SDS_P1;SDS_P2;PMS_P1;PMS_P2;Temp;Humidity;BMP_temperature;BMP_pressure;BME280_temperature;BME280_humidity;BME280_pressure;Samples;Min_cycle;Max_cycle;Signal;HPM_P1;HPM_P2
2023/05/03 00:00:16;;;;;;;16.80;13.60;;;5.60;99.90;;;;;;4975980;28;20039;-87
2023/05/03 00:02:43;;;;;;;16.60;13.40;;;5.60;99.90;;;;;;4975851;28;20042;-86
2023/05/03 00:05:11;;;;;;;16.10;12.93;;;5.50;99.90;;;;;;4975121;28;20041;-86
2023/05/03 00:07:37;;;;;;;12.13;10.23;;;5.50;99.90;;;;;;4975928;28;20391;-86
2023/05/03 00:10:03;;;;;;;10.90;8.47;;;5.40;99.90;;;;;;4975085;28;20039;-86
2023/05/03 00:12:29;;;;;;;11.70;9.30;;;5.40;99.90;;;;;;4976038;28;20019;-86
2023/05/03 00:14:55;;;;;;;10.47;8.83;;;5.30;99.90;;;;;;4975499;28;20091;-86
2023/05/03 00:17:20;;;;;;;11.97;9.37;;;5.30;99.90;;;;;;4975277;28;20114;-88
2023/05/03 00:19:46;;;;;;;11.13;9.67;;;5.20;99.90;;;;;;4973151;28;20046;-87
2023/05/03 00:22:12;;;;;;;12.70;9.90;;;5.20;99.90;;;;;;4973812;28;20109;-86
2023/05/03 00:24:37;;;;;;;11.43;9.93;;;5.20;99.90;;;;;;4974541;28;21359;-86
2023/05/03 00:27:04;;;;;;;28.20;9.10;;;5.20;99.90;;;;;;4973071;28;20026;-86
2023/05/03 00:29:29;;;;;;;13.17;9.27;;;5.10;99.90;;;;;;4973037;28;20035;-86
2023/05/03 00:31:55;;;;;;;10.40;8.97;;;5.10;99.90;;;;;;4974108;28;20031;-87
2023/05/03 00:34:20;;;;;;;27.47;9.83;;;5.10;99.90;;;;;;4971820;28;20035;-86
2023/05/03 00:36:46;;;;;;;11.80;8.80;;;5.10;99.90;;;;;;4972191;28;20061;-86
2023/05/03 00:39:12;;;;;;;13.33;9.13;;;5.10;99.90;;;;;;4968665;28;20093;-86
2023/05/03 00:41:38;;;;;;;30.53;10.00;;;5.10;99.90;;;;;;4969002;28;20077;-85
2023/05/03 00:44:04;;;;;;;29.17;9.03;;;5.10;99.90;;;;;;4966175;28;20031;-86
2023/05/03 00:46:30;;;;;;;10.37;8.90;;;5.00;99.90;;;;;;4965489;28;20508;-87
2023/05/03 00:48:56;;;;;;;10.73;9.47;;;5.00;99.90;;;;;;4969967;28;20054;-86
2023/05/03 00:51:22;;;;;;;12.43;8.43;;;5.00;99.90;;;;;;4973852;28;20501;-87
2023/05/03 00:53:47;;;;;;;9.77;8.77;;;5.00;99.90;;;;;;4974813;28;20027;-86
2023/05/03 00:56:18;;;;;;;11.47;9.73;;;5.00;99.90;;;;;;4974462;28;20118;-86
2023/05/03 00:58:44;;;;;;;10.63;9.53;;;5.00;99.90;;;;;;4975381;28;20122;-86
2023/05/03 01:01:10;;;;;;;10.27;9.03;;;5.00;99.90;;;;;;4974443;28;20090;-88
2023/05/03 01:03:39;;;;;;;11.40;10.20;;;5.00;99.90;;;;;;4972334;28;20455;-86
2023/05/03 01:06:14;;;;;;;18.87;9.67;;;5.00;99.90;;;;;;4973966;28;20113;-86
2023/05/03 01:08:53;;;;;;;31.95;11.18;;;5.00;99.90;;;;;;4972877;28;20031;-87
2023/05/03 01:11:21;;;;;;;17.03;10.10;;;5.00;99.90;;;;;;4973900;28;20066;-86
2023/05/03 01:14:05;;;;;;;15.43;10.57;;;5.00;99.90;;;;;;4973142;28;20043;-86
2023/05/03 01:16:39;;;;;;;15.60;11.27;;;5.00;99.90;;;;;;4974557;28;20035;-85
2023/05/03 01:19:18;;;;;;;29.40;11.32;;;5.00;99.90;;;;;;4973362;28;20122;-89
2023/05/03 01:21:53;;;;;;;102.17;10.97;;;5.00;99.90;;;;;;4972897;28;20062;-85
2023/05/03 01:24:25;;;;;;;58.75;12.43;;;5.00;99.90;;;;;;4974182;28;20031;-86
2023/05/03 01:26:50;;;;;;;12.87;8.90;;;5.00;99.90;;;;;;4974896;28;20036;-85
2023/05/03 01:29:16;;;;;;;12.50;9.70;;;5.00;99.90;;;;;;4973605;28;20057;-85
2023/05/03 01:31:54;;;;;;;17.70;9.00;;;5.00;99.90;;;;;;4973328;28;20027;-86
2023/05/03 01:34:36;;;;;;;9.77;8.77;;;5.00;99.90;;;;;;4972737;28;20161;-85
2023/05/03 01:37:03;;;;;;;9.83;8.60;;;5.00;99.90;;;;;;4973192;28;20168;-86
2023/05/03 01:39:43;;;;;;;8.43;7.63;;;4.90;99.90;;;;;;4973947;28;20085;-86
2023/05/03 01:42:08;;;;;;;10.80;9.00;;;4.90;99.90;;;;;;4974073;28;20415;-86
2023/05/03 01:44:36;;;;;;;9.67;8.77;;;4.90;99.90;;;;;;4973637;28;20042;-86
2023/05/03 01:47:02;;;;;;;9.30;8.40;;;4.80;99.90;;;;;;4975038;28;20723;-86
2023/05/03 01:49:27;;;;;;;10.13;9.13;;;4.80;99.90;;;;;;4971933;28;20042;-87
2023/05/03 01:51:53;;;;;;;15.47;8.43;;;4.80;99.90;;;;;;4974022;28;20033;-86
2023/05/03 01:54:18;;;;;;;11.73;8.20;;;4.80;99.90;;;;;;4973919;28;20038;-86
2023/05/03 01:56:44;;;;;;;9.50;8.50;;;4.80;99.90;;;;;;4972999;28;20456;-87
2023/05/03 01:59:09;;;;;;;10.03;8.07;;;4.80;99.90;;;;;;4973373;28;20976;-89
2023/05/03 02:01:35;;;;;;;18.73;8.57;;;4.80;99.90;;;;;;4973627;28;20046;-86
2023/05/03 02:04:01;;;;;;;22.70;9.03;;;4.70;99.90;;;;;;4973867;28;20030;-87
2023/05/03 02:06:26;;;;;;;9.77;8.43;;;4.70;99.90;;;;;;4973564;28;20070;-85
2023/05/03 02:08:53;;;;;;;14.53;8.63;;;4.70;99.90;;;;;;4974120;28;20035;-86
2023/05/03 02:11:18;;;;;;;17.20;9.90;;;4.70;99.90;;;;;;4975461;28;20051;-86
2023/05/03 02:13:44;;;;;;;28.03;9.50;;;4.70;99.90;;;;;;4972547;28;20046;-87
2023/05/03 02:16:10;;;;;;;27.83;11.20;;;4.70;99.90;;;;;;4971092;28;20079;-86
2023/05/03 02:18:36;;;;;;;13.13;10.80;;;4.70;99.90;;;;;;4973354;28;20081;-87
2023/05/03 02:21:02;;;;;;;45.00;11.20;;;4.70;99.90;;;;;;4971825;28;20504;-87
2023/05/03 02:23:27;;;;;;;46.43;10.93;;;4.70;99.90;;;;;;4973220;28;20194;-88
2023/05/03 02:25:53;;;;;;;24.87;10.43;;;4.70;99.90;;;;;;4973374;28;20631;-87
2023/05/03 02:28:18;;;;;;;44.73;9.53;;;4.70;99.90;;;;;;4971774;28;20415;-86
2023/05/03 02:30:44;;;;;;;42.73;9.47;;;4.70;99.90;;;;;;4972848;28;20035;-87
2023/05/03 02:33:10;;;;;;;14.03;9.60;;;4.70;99.90;;;;;;4972699;28;20743;-86
2023/05/03 02:35:35;;;;;;;25.47;9.93;;;4.70;99.90;;;;;;4972580;28;20034;-87
2023/05/03 02:38:01;;;;;;;15.00;9.57;;;4.70;99.90;;;;;;4973069;28;20037;-87
2023/05/03 02:40:26;;;;;;;16.40;9.07;;;4.60;99.90;;;;;;4970242;28;20058;-86
2023/05/03 02:42:52;;;;;;;34.37;9.87;;;4.60;99.90;;;;;;4971706;28;20051;-86
2023/05/03 02:45:17;;;;;;;30.37;8.93;;;4.60;99.90;;;;;;4973084;28;20046;-88
2023/05/03 02:47:43;;;;;;;56.13;9.93;;;4.60;99.90;;;;;;4973019;28;20035;-86
2023/05/03 02:50:08;;;;;;;42.60;9.93;;;4.60;99.90;;;;;;4973017;28;20049;-86
2023/05/03 02:52:34;;;;;;;20.67;10.10;;;4.50;99.90;;;;;;4973489;28;20499;-87
2023/05/03 02:55:00;;;;;;;11.47;9.77;;;4.50;99.90;;;;;;4972765;28;20034;-86
2023/05/03 02:57:25;;;;;;;15.60;9.83;;;4.50;99.90;;;;;;4972878;28;20019;-86
2023/05/03 02:59:51;;;;;;;39.67;9.83;;;4.50;99.90;;;;;;4973029;28;20055;-87
2023/05/03 03:02:17;;;;;;;38.90;11.83;;;4.50;99.90;;;;;;4972652;28;20030;-86
2023/05/03 03:04:42;;;;;;;43.37;10.87;;;4.50;99.90;;;;;;4972253;28;20054;-88
2023/05/03 03:07:08;;;;;;;63.13;11.23;;;4.50;99.90;;;;;;4973361;28;20086;-86
2023/05/03 03:09:34;;;;;;;27.50;10.70;;;4.50;99.90;;;;;;4971601;28;20102;-88
2023/05/03 03:12:02;;;;;;;58.27;11.27;;;4.50;99.90;;;;;;4972512;28;20019;-87
2023/05/03 03:14:28;;;;;;;21.40;10.77;;;4.50;99.90;;;;;;4972611;28;20123;-87
2023/05/03 03:16:53;;;;;;;14.20;10.53;;;4.50;99.90;;;;;;4970843;28;20098;-86
2023/05/03 03:19:19;;;;;;;13.37;10.17;;;4.50;99.90;;;;;;4968954;28;20039;-88
2023/05/03 03:21:44;;;;;;;13.87;9.23;;;4.60;99.90;;;;;;4971770;28;20796;-86
2023/05/03 03:24:10;;;;;;;10.70;9.23;;;4.60;99.90;;;;;;4972218;28;20062;-86
2023/05/03 03:26:35;;;;;;;11.03;9.67;;;4.60;99.90;;;;;;4971731;28;20046;-86
2023/05/03 03:29:01;;;;;;;11.93;10.60;;;4.70;99.90;;;;;;4971285;28;20142;-87
2023/05/03 03:31:27;;;;;;;12.50;10.50;;;4.70;99.90;;;;;;4971684;28;20030;-86
2023/05/03 03:33:52;;;;;;;12.37;9.93;;;4.70;99.90;;;;;;4971799;28;20484;-86
2023/05/03 03:36:18;;;;;;;11.70;10.10;;;4.70;99.90;;;;;;4971707;28;20031;-86
2023/05/03 03:38:43;;;;;;;11.83;10.13;;;4.70;99.90;;;;;;4972575;28;20034;-86
2023/05/03 03:41:09;;;;;;;10.60;8.93;;;4.70;99.90;;;;;;4973318;28;20034;-86
2023/05/03 03:43:35;;;;;;;12.33;10.43;;;4.80;99.90;;;;;;4975686;28;20034;-86
2023/05/03 03:46:00;;;;;;;11.90;10.20;;;4.80;99.90;;;;;;4976240;28;20031;-87
2023/05/03 03:48:26;;;;;;;10.63;9.47;;;4.80;99.90;;;;;;4976091;28;20434;-86
2023/05/03 03:50:51;;;;;;;11.33;9.77;;;4.90;99.90;;;;;;4975496;28;21157;-86
2023/05/03 03:53:17;;;;;;;12.30;11.00;;;4.90;99.90;;;;;;4975702;28;20038;-87
2023/05/03 03:55:42;;;;;;;14.00;11.63;;;5.00;99.90;;;;;;4974033;28;20055;-87
2023/05/03 03:58:08;;;;;;;15.33;11.37;;;5.00;99.90;;;;;;4975150;28;20042;-86
2023/05/03 04:00:35;;;;;;;13.33;11.03;;;5.10;99.90;;;;;;4975054;28;20045;-87
2023/05/03 04:03:01;;;;;;;16.53;10.80;;;5.10;99.90;;;;;;4975481;28;20042;-86
2023/05/03 04:05:26;;;;;;;12.60;10.47;;;5.20;99.90;;;;;;4975689;28;20037;-87
2023/05/03 04:07:52;;;;;;;34.23;10.83;;;5.20;99.90;;;;;;4974453;28;20027;-88
2023/05/03 04:10:17;;;;;;;37.83;11.37;;;5.20;99.90;;;;;;4972919;28;20034;-86
2023/05/03 04:12:43;;;;;;;42.20;11.23;;;5.20;99.90;;;;;;4971175;28;20035;-86
2023/05/03 04:15:10;;;;;;;18.20;12.00;;;5.30;99.90;;;;;;4971995;28;20510;-87
2023/05/03 04:17:36;;;;;;;38.93;11.37;;;5.30;99.90;;;;;;4972743;28;20023;-86
2023/05/03 04:20:06;;;;;;;64.57;12.87;;;5.30;99.90;;;;;;4970461;28;20780;-86
2023/05/03 04:22:31;;;;;;;71.87;13.03;;;5.40;99.90;;;;;;4969724;28;20094;-87
2023/05/03 04:24:59;;;;;;;66.47;11.13;;;5.40;99.90;;;;;;4967769;28;20157;-86
2023/05/03 04:27:25;;;;;;;19.23;11.93;;;5.50;99.90;;;;;;4967554;28;20031;-86
2023/05/03 04:29:51;;;;;;;31.50;12.83;;;5.50;99.90;;;;;;4965978;28;20049;-86
2023/05/03 04:32:22;;;;;;;87.07;12.10;;;5.50;99.90;;;;;;4966717;28;20082;-85
2023/05/03 04:34:51;;;;;;;54.27;12.23;;;5.60;99.90;;;;;;4970684;28;20031;-86
2023/05/03 04:37:18;;;;;;;53.60;12.27;;;5.60;99.90;;;;;;4972573;28;20042;-86
2023/05/03 04:39:44;;;;;;;23.20;12.63;;;5.70;99.90;;;;;;4970969;28;20058;-86
2023/05/03 04:42:14;;;;;;;31.37;12.43;;;5.80;99.90;;;;;;4971470;28;20042;-86
2023/05/03 04:44:40;;;;;;;24.80;12.93;;;5.80;99.90;;;;;;4970215;28;20035;-86
2023/05/03 04:47:06;;;;;;;47.20;12.63;;;5.90;99.90;;;;;;4971097;28;20034;-85
2023/05/03 04:49:33;;;;;;;26.40;13.50;;;5.90;99.90;;;;;;4970377;28;20057;-86
2023/05/03 04:51:59;;;;;;;131.27;14.83;;;6.00;99.90;;;;;;4970889;28;20038;-84
2023/05/03 04:54:24;;;;;;;41.87;13.47;;;6.10;99.90;;;;;;4969927;28;20038;-85
2023/05/03 04:56:50;;;;;;;37.47;14.17;;;6.10;99.90;;;;;;4951541;28;20038;-86
2023/05/03 04:59:16;;;;;;;45.57;13.57;;;6.10;99.90;;;;;;4950401;28;20042;-85
2023/05/03 05:01:41;;;;;;;30.23;14.90;;;6.30;99.90;;;;;;4963198;28;20049;-85
2023/05/03 05:04:07;;;;;;;38.93;14.77;;;6.30;99.90;;;;;;4965800;28;20154;-86
2023/05/03 05:06:33;;;;;;;249.23;126.13;;;6.40;99.90;;;;;;4965564;28;20031;-86
2023/05/03 05:08:59;;;;;;;51.90;22.60;;;6.40;99.90;;;;;;4968498;28;20158;-86
2023/05/03 05:11:24;;;;;;;102.23;16.23;;;6.50;99.90;;;;;;4967407;28;20027;-86
2023/05/03 05:13:50;;;;;;;94.43;19.27;;;6.50;99.90;;;;;;4969137;28;20038;-85
2023/05/03 05:16:16;;;;;;;69.30;18.57;;;6.50;99.90;;;;;;4968372;28;20034;-86
2023/05/03 05:18:42;;;;;;;113.17;19.07;;;6.50;99.90;;;;;;4964854;28;20186;-87
2023/05/03 05:21:07;;;;;;;85.00;17.73;;;6.50;99.90;;;;;;4967267;28;20514;-86
2023/05/03 05:23:33;;;;;;;46.33;19.97;;;6.50;99.90;;;;;;4968164;28;20038;-86
2023/05/03 05:25:59;;;;;;;129.33;21.60;;;6.50;99.90;;;;;;4966574;28;20042;-86
2023/05/03 05:28:26;;;;;;;170.17;18.80;;;6.60;99.90;;;;;;4968274;28;20026;-86
2023/05/03 05:30:52;;;;;;;194.37;19.90;;;6.60;99.90;;;;;;4968184;28;20559;-85
2023/05/03 05:33:17;;;;;;;126.63;19.93;;;6.60;99.90;;;;;;4967887;28;20161;-86
2023/05/03 05:35:45;;;;;;;180.50;20.63;;;6.60;99.90;;;;;;4967941;28;20026;-88
2023/05/03 05:38:11;;;;;;;175.93;19.60;;;6.70;99.90;;;;;;4967903;28;20054;-85
2023/05/03 05:40:37;;;;;;;133.17;17.27;;;6.70;99.90;;;;;;4966058;28;20043;-85
2023/05/03 05:43:03;;;;;;;170.70;19.10;;;6.70;99.90;;;;;;4967811;28;20027;-84
2023/05/03 05:45:28;;;;;;;129.10;20.37;;;6.80;99.90;;;;;;4965808;28;20033;-87
2023/05/03 05:47:54;;;;;;;118.80;26.80;;;6.80;99.90;;;;;;4968747;28;20030;-86
2023/05/03 05:50:20;;;;;;;145.20;19.90;;;6.80;99.90;;;;;;4967031;28;20148;-86
2023/05/03 05:52:45;;;;;;;170.33;18.03;;;6.90;99.90;;;;;;4968068;28;20057;-87
2023/05/03 05:55:13;;;;;;;148.33;19.97;;;6.90;99.90;;;;;;4967919;28;20033;-85
2023/05/03 05:57:39;;;;;;;94.07;18.47;;;6.90;99.90;;;;;;4967883;28;20034;-86
2023/05/03 06:00:13;;;;;;;110.03;20.03;;;7.00;99.90;;;;;;4967333;28;20058;-86
2023/05/03 06:02:39;;;;;;;139.40;20.77;;;7.00;99.90;;;;;;4967070;28;21065;-86
2023/05/03 06:05:05;;;;;;;143.53;22.20;;;7.10;99.90;;;;;;4967670;28;20053;-87
2023/05/03 06:07:31;;;;;;;69.87;19.83;;;7.10;99.90;;;;;;4962136;28;20035;-86
2023/05/03 06:09:56;;;;;;;104.43;19.53;;;7.20;99.90;;;;;;4965454;28;20035;-86
2023/05/03 06:12:22;;;;;;;106.00;20.53;;;7.20;99.90;;;;;;4965763;28;21110;-88
2023/05/03 06:14:47;;;;;;;72.67;20.33;;;7.30;99.90;;;;;;4966101;28;20063;-88
2023/05/03 06:17:13;;;;;;;107.63;22.97;;;7.30;99.90;;;;;;4965095;28;20082;-88
2023/05/03 06:19:39;;;;;;;109.73;22.37;;;7.40;99.90;;;;;;4962432;28;20057;-87
2023/05/03 06:22:04;;;;;;;108.37;28.83;;;7.40;99.90;;;;;;4963298;28;20029;-86
2023/05/03 06:24:31;;;;;;;81.87;21.20;;;7.50;99.90;;;;;;4962582;28;20034;-87
2023/05/03 06:26:57;;;;;;;130.07;19.73;;;7.60;99.90;;;;;;4964826;28;20043;-86
2023/05/03 06:29:23;;;;;;;93.27;20.00;;;7.70;99.90;;;;;;4963334;28;20053;-87
2023/05/03 06:31:49;;;;;;;115.20;22.07;;;7.70;99.90;;;;;;4966629;28;20041;-86
2023/05/03 06:34:20;;;;;;;124.57;22.07;;;7.70;99.90;;;;;;4966716;28;20039;-86
2023/05/03 06:36:46;;;;;;;90.77;22.13;;;7.70;99.90;;;;;;4967037;28;20047;-88
2023/05/03 06:39:11;;;;;;;64.27;21.70;;;7.70;99.90;;;;;;4962933;28;20035;-86
2023/05/03 06:41:37;;;;;;;36.67;21.00;;;7.80;99.90;;;;;;4964310;28;20047;-86
2023/05/03 06:44:03;;;;;;;60.63;23.23;;;7.80;99.90;;;;;;4966171;28;20034;-88
2023/05/03 06:46:29;;;;;;;49.03;21.33;;;7.90;99.90;;;;;;4963292;28;20037;-86
2023/05/03 06:48:56;;;;;;;43.60;20.53;;;7.90;99.90;;;;;;4961932;28;20042;-87
2023/05/03 06:51:26;;;;;;;41.53;21.40;;;7.90;99.90;;;;;;4964481;28;20109;-86
2023/05/03 06:53:54;;;;;;;44.93;20.70;;;8.00;99.90;;;;;;4963797;28;20090;-86
2023/05/03 06:56:21;;;;;;;43.03;20.97;;;8.00;99.90;;;;;;4967534;28;20027;-88
2023/05/03 06:58:47;;;;;;;48.37;21.23;;;8.00;99.90;;;;;;4965245;28;20912;-86
2023/05/03 07:01:12;;;;;;;53.90;20.70;;;8.00;99.90;;;;;;4965828;28;20054;-86
2023/05/03 07:03:38;;;;;;;41.00;20.27;;;8.10;99.90;;;;;;4966565;28;20085;-86
2023/05/03 07:06:04;;;;;;;34.77;21.27;;;8.10;99.90;;;;;;4968518;28;20031;-86
2023/05/03 07:08:30;;;;;;;46.13;23.20;;;8.10;99.90;;;;;;4963659;28;20038;-86
2023/05/03 07:10:56;;;;;;;39.00;21.30;;;8.10;99.90;;;;;;4966589;28;20089;-86
2023/05/03 07:13:21;;;;;;;37.10;20.93;;;8.10;99.90;;;;;;4965289;28;20031;-86
2023/05/03 07:15:47;;;;;;;58.67;25.93;;;8.20;99.90;;;;;;4968518;28;20507;-88
2023/05/03 07:18:13;;;;;;;36.67;20.73;;;8.20;99.90;;;;;;4969016;28;20109;-86
2023/05/03 07:20:38;;;;;;;33.23;22.93;;;8.30;99.90;;;;;;4967921;28;20496;-87
2023/05/03 07:23:05;;;;;;;35.40;21.47;;;8.30;99.90;;;;;;4970292;28;20031;-86
2023/05/03 07:25:31;;;;;;;49.07;35.67;;;8.40;99.90;;;;;;4968997;28;20042;-87
2023/05/03 07:27:57;;;;;;;43.50;28.80;;;8.40;99.90;;;;;;4967975;28;20114;-87
2023/05/03 07:30:23;;;;;;;38.40;24.23;;;8.50;99.90;;;;;;4970106;28;20039;-87
2023/05/03 07:32:49;;;;;;;35.40;23.83;;;8.50;99.90;;;;;;4968286;28;20133;-87
2023/05/03 07:35:15;;;;;;;43.33;28.07;;;8.50;99.90;;;;;;4968375;28;20098;-86
2023/05/03 07:37:41;;;;;;;37.80;25.43;;;8.50;99.90;;;;;;4964567;28;20103;-86
2023/05/03 07:40:11;;;;;;;38.77;24.40;;;8.60;99.90;;;;;;4968370;28;20074;-86
2023/05/03 07:42:36;;;;;;;39.20;26.50;;;8.60;99.90;;;;;;4968426;28;20031;-87
2023/05/03 07:45:02;;;;;;;40.40;21.73;;;8.70;99.90;;;;;;4969504;28;21421;-86
2023/05/03 07:47:28;;;;;;;35.10;22.47;;;8.70;99.90;;;;;;4969527;28;20229;-87
2023/05/03 07:49:53;;;;;;;35.10;23.43;;;8.80;99.90;;;;;;4970085;28;20037;-86
2023/05/03 07:52:19;;;;;;;41.20;23.83;;;8.90;99.90;;;;;;4972118;28;20034;-86
2023/05/03 07:54:45;;;;;;;48.13;25.20;;;8.90;99.90;;;;;;4970402;28;20026;-86
2023/05/03 07:57:15;;;;;;;42.80;25.13;;;8.90;99.90;;;;;;4969137;28;20023;-86
2023/05/03 07:59:42;;;;;;;43.30;25.00;;;9.00;99.90;;;;;;4966120;28;20042;-84
2023/05/03 08:02:08;;;;;;;41.07;25.27;;;9.10;99.90;;;;;;4966383;28;20047;-86
2023/05/03 08:04:34;;;;;;;40.07;25.07;;;9.10;99.90;;;;;;4965954;28;20027;-87
2023/05/03 08:07:01;;;;;;;33.50;22.07;;;9.20;99.90;;;;;;4962623;28;20481;-88
2023/05/03 08:09:27;;;;;;;35.83;23.33;;;9.30;99.90;;;;;;4963640;28;20526;-85
2023/05/03 08:11:54;;;;;;;37.80;24.37;;;9.40;99.90;;;;;;4964042;28;20031;-86
2023/05/03 08:14:20;;;;;;;44.03;25.03;;;9.50;99.90;;;;;;4965787;28;20110;-86
2023/05/03 08:16:46;;;;;;;42.23;26.67;;;9.50;99.90;;;;;;4962978;28;20027;-85
2023/05/03 08:19:11;;;;;;;40.43;26.83;;;9.50;99.90;;;;;;4960529;28;20035;-86
2023/05/03 08:21:37;;;;;;;39.83;24.53;;;9.60;99.90;;;;;;4967875;28;20294;-87
2023/05/03 08:24:05;;;;;;;43.37;26.53;;;9.60;99.90;;;;;;4968023;28;20103;-86
2023/05/03 08:26:31;;;;;;;41.23;26.37;;;9.80;99.90;;;;;;4950713;28;20031;-86
2023/05/03 08:28:57;;;;;;;44.40;26.27;;;9.80;99.90;;;;;;4968486;28;20039;-86
2023/05/03 08:31:23;;;;;;;46.93;27.17;;;9.80;99.90;;;;;;4967542;28;20031;-87
2023/05/03 08:33:49;;;;;;;48.37;28.43;;;9.90;99.90;;;;;;4969339;28;20518;-86
2023/05/03 08:36:14;;;;;;;51.77;28.73;;;9.90;99.90;;;;;;4971631;28;20058;-87
2023/05/03 08:38:40;;;;;;;47.50;27.93;;;9.90;99.90;;;;;;4965404;28;20039;-86
2023/05/03 08:41:17;;;;;;;43.33;26.37;;;9.90;99.90;;;;;;4967683;28;20038;-86
2023/05/03 08:43:45;;;;;;;43.57;27.07;;;10.00;99.90;;;;;;4967628;28;20035;-87
2023/05/03 08:46:12;;;;;;;42.13;27.93;;;10.10;99.90;;;;;;4967921;28;20045;-88
2023/05/03 08:48:38;;;;;;;38.23;25.43;;;10.20;99.90;;;;;;4968454;28;20042;-86
2023/05/03 08:51:04;;;;;;;45.17;31.93;;;10.30;99.90;;;;;;4969115;28;20026;-87
2023/05/03 08:53:29;;;;;;;37.37;24.83;;;10.40;99.90;;;;;;4967794;28;20069;-86
2023/05/03 08:55:55;;;;;;;35.30;23.70;;;10.50;99.90;;;;;;4967924;28;20046;-86
2023/05/03 08:58:21;;;;;;;39.53;27.43;;;10.70;99.90;;;;;;4968298;28;20546;-86
2023/05/03 09:00:46;;;;;;;38.40;26.90;;;10.70;99.90;;;;;;4970918;28;20610;-86
2023/05/03 09:03:12;;;;;;;43.07;28.90;;;10.70;99.90;;;;;;4969670;28;20042;-86
2023/05/03 09:05:39;;;;;;;39.50;25.17;;;10.80;99.90;;;;;;4969419;28;20435;-86
2023/05/03 09:08:12;;;;;;;37.77;25.57;;;10.90;99.90;;;;;;4967402;28;20042;-87
2023/05/03 09:10:39;;;;;;;39.23;27.27;;;10.90;99.90;;;;;;4968139;28;20058;-86
2023/05/03 09:13:06;;;;;;;37.17;26.43;;;10.90;99.90;;;;;;4967747;28;20517;-86
2023/05/03 09:15:32;;;;;;;40.43;28.07;;;11.00;99.90;;;;;;4969266;28;20035;-86
2023/05/03 09:18:14;;;;;;;50.73;33.60;;;11.00;99.90;;;;;;4965629;28;20042;-86
2023/05/03 09:20:41;;;;;;;40.47;28.02;;;11.10;99.90;;;;;;4965992;28;21463;-87
2023/05/03 09:23:07;;;;;;;37.30;26.35;;;11.20;99.90;;;;;;4968019;28;20033;-86
2023/05/03 09:25:59;;;;;;;44.97;29.23;;;11.20;99.90;;;;;;4968018;28;20066;-87
2023/05/03 09:28:25;;;;;;;46.00;29.17;;;11.10;99.90;;;;;;4964530;28;20058;-87
2023/05/03 09:31:04;;;;;;;42.95;29.67;;;11.10;99.90;;;;;;4965504;28;20031;-88
2023/05/03 09:33:29;;;;;;;43.27;28.87;;;11.10;99.90;;;;;;4966205;28;20027;-85
2023/05/03 09:35:56;;;;;;;39.40;28.38;;;11.10;99.90;;;;;;4965718;28;20233;-87
2023/05/03 09:38:26;;;;;;;45.70;30.42;;;11.10;99.90;;;;;;4968797;28;20023;-88
2023/05/03 09:40:51;;;;;;;45.17;29.13;;;11.10;99.90;;;;;;4967829;28;20055;-87
2023/05/03 09:43:17;;;;;;;45.57;29.87;;;11.10;99.90;;;;;;4967309;28;20029;-86
2023/05/03 09:45:43;;;;;;;45.87;30.63;;;11.10;99.90;;;;;;4967604;28;20035;-87
2023/05/03 09:48:08;;;;;;;48.67;32.80;;;11.10;99.90;;;;;;4965249;28;20038;-87
2023/05/03 09:50:35;;;;;;;45.53;29.97;;;11.20;99.90;;;;;;4965945;28;20101;-85
2023/05/03 09:53:03;;;;;;;48.22;31.42;;;11.30;99.90;;;;;;4967928;28;20035;-85
2023/05/03 09:55:39;;;;;;;46.75;29.90;;;11.30;99.90;;;;;;4966770;28;20761;-84
2023/05/03 09:58:06;;;;;;;44.37;30.47;;;11.20;99.90;;;;;;4967378;28;20137;-85
2023/05/03 10:00:42;;;;;;;41.13;28.60;;;11.20;99.90;;;;;;4972532;28;20042;-85
2023/05/03 10:03:10;;;;;;;39.58;28.02;;;11.30;99.90;;;;;;4977705;28;20035;-85
2023/05/03 10:05:43;;;;;;;40.47;27.38;;;11.40;99.90;;;;;;4976334;28;20046;-85
2023/05/03 10:08:11;;;;;;;50.45;32.42;;;11.50;99.90;;;;;;4977679;28;20031;-85
2023/05/03 10:10:41;;;;;;;72.90;39.70;;;11.70;99.90;;;;;;4976478;28;20031;-85
2023/05/03 10:13:06;;;;;;;58.03;35.42;;;11.90;99.90;;;;;;4977099;28;20217;-85
2023/05/03 10:15:36;;;;;;;42.17;28.58;;;12.10;99.90;;;;;;4977364;28;20050;-85
2023/05/03 10:18:06;;;;;;;43.83;28.92;;;12.30;99.90;;;;;;4976734;28;20031;-86
2023/05/03 10:20:34;;;;;;;38.20;26.05;;;12.40;99.90;;;;;;4975220;28;20051;-85
2023/05/03 10:23:03;;;;;;;46.65;30.13;;;12.50;99.90;;;;;;4976701;28;20023;-85
2023/05/03 10:25:29;;;;;;;49.90;30.85;;;12.50;99.90;;;;;;4977004;28;20030;-84
2023/05/03 10:28:02;;;;;;;40.92;27.17;;;12.60;99.90;;;;;;4975512;28;21546;-85
2023/05/03 10:30:33;;;;;;;41.47;28.05;;;12.50;99.90;;;;;;4973514;28;20026;-85
2023/05/03 10:33:12;;;;;;;56.08;35.10;;;12.40;99.90;;;;;;4974203;28;20051;-85
2023/05/03 10:35:42;;;;;;;50.15;31.58;;;12.30;99.90;;;;;;4968823;28;20034;-85
2023/05/03 10:38:27;;;;;;;40.33;27.77;;;12.30;99.90;;;;;;4968888;28;20027;-85
2023/05/03 10:40:55;;;;;;;37.78;26.35;;;12.40;99.90;;;;;;4972398;28;20061;-86
2023/05/03 10:43:32;;;;;;;40.05;27.98;;;12.50;99.90;;;;;;4973502;28;20066;-85
2023/05/03 10:46:05;;;;;;;38.75;26.20;;;12.60;99.90;;;;;;4973554;28;20046;-86
2023/05/03 10:48:32;;;;;;;44.72;28.00;;;12.80;99.90;;;;;;4962779;28;20039;-76
2023/05/03 10:51:35;;;;;;;39.13;27.73;;;12.80;99.90;;;;;;4960768;28;20055;-87
2023/05/03 10:54:01;;;;;;;41.35;27.52;;;13.00;99.90;;;;;;4942085;28;20500;-86
2023/05/03 10:56:26;;;;;;;44.22;30.10;;;13.10;99.90;;;;;;4958142;28;20034;-86
2023/05/03 10:58:55;;;;;;;36.40;25.83;;;13.20;99.90;;;;;;4959070;28;20023;-87
2023/05/03 11:01:23;;;;;;;45.90;30.60;;;13.20;99.90;;;;;;4960909;28;20121;-90
2023/05/03 11:04:03;;;;;;;39.33;28.05;;;13.10;99.90;;;;;;4959364;28;20043;-87
2023/05/03 11:06:30;;;;;;;43.28;28.15;;;13.20;99.90;;;;;;4958258;28;20500;-87
2023/05/03 11:08:55;;;;;;;61.05;36.65;;;13.70;99.90;;;;;;4959982;28;20030;-87
2023/05/03 11:11:21;;;;;;;46.00;30.08;;;14.00;99.90;;;;;;4957283;28;20054;-88
2023/05/03 11:13:49;;;;;;;33.08;24.38;;;14.10;99.90;;;;;;4960505;28;20093;-88
2023/05/03 11:16:15;;;;;;;39.50;27.65;;;14.30;99.90;;;;;;4962019;28;20102;-90
2023/05/03 11:18:41;;;;;;;31.75;23.83;;;14.50;99.90;;;;;;4960129;28;20050;-88
2023/05/03 11:21:06;;;;;;;46.88;32.10;;;14.80;99.90;;;;;;4958125;28;20142;-87
2023/05/03 11:23:32;;;;;;;39.83;30.15;;;14.80;99.90;;;;;;4956424;28;20125;-88
2023/05/03 11:25:57;;;;;;;39.63;27.70;;;14.70;99.90;;;;;;4961212;28;20110;-87
2023/05/03 11:28:26;;;;;;;38.38;28.52;;;14.50;99.90;;;;;;4960377;28;20117;-87
2023/05/03 11:30:52;;;;;;;34.22;26.67;;;14.30;99.90;;;;;;4957910;28;20035;-87
2023/05/03 11:33:18;;;;;;;35.05;25.10;;;14.40;99.90;;;;;;4956796;28;20046;-88
2023/05/03 11:35:43;;;;;;;32.75;25.00;;;14.70;99.90;;;;;;4960231;28;20089;-87
2023/05/03 11:38:09;;;;;;;33.67;24.55;;;15.00;99.90;;;;;;4958424;28;20042;-87
2023/05/03 11:40:35;;;;;;;44.05;28.48;;;15.20;99.90;;;;;;4958104;28;20055;-91
2023/05/03 11:43:01;;;;;;;25.27;20.85;;;15.50;99.90;;;;;;4958531;28;20034;-87
2023/05/03 11:45:47;;;;;;;25.65;20.58;;;15.90;99.90;;;;;;4956121;28;20047;-87
2023/05/03 11:48:13;;;;;;;23.02;19.02;;;16.20;99.90;;;;;;4960030;28;20117;-88
2023/05/03 11:51:12;;;;;;;37.28;26.70;;;16.60;99.90;;;;;;4959595;28;20026;-88
2023/05/03 11:53:39;;;;;;;30.75;21.02;;;17.00;99.90;;;;;;4925531;28;20526;-92
2023/05/03 11:56:16;;;;;;;23.05;19.35;;;17.10;99.90;;;;;;4962759;28;20918;-90
2023/05/03 11:58:58;;;;;;;25.25;19.88;;;17.20;99.90;;;;;;4960916;28;20038;-86
2023/05/03 12:01:26;;;;;;;25.58;20.73;;;17.30;99.90;;;;;;4961624;28;20051;-87
2023/05/03 12:04:04;;;;;;;20.48;17.73;;;17.30;99.90;;;;;;4966307;28;20031;-79
2023/05/03 12:06:33;;;;;;;20.95;17.95;;;17.40;99.90;;;;;;4961620;28;20239;-76
2023/05/03 12:09:00;;;;;;;24.00;19.02;;;17.60;99.90;;;;;;4962963;28;20582;-78
2023/05/03 12:11:26;;;;;;;20.80;16.58;;;17.30;99.90;;;;;;4960042;28;20058;-73
2023/05/03 12:13:59;;;;;;;20.33;16.48;;;17.60;99.90;;;;;;4962517;28;20126;-76
2023/05/03 12:16:26;;;;;;;19.42;17.20;;;17.90;99.90;;;;;;4963544;28;20035;-73
2023/05/03 12:18:54;;;;;;;23.45;17.75;;;17.90;99.90;;;;;;4961846;28;20023;-72
2023/05/03 12:21:20;;;;;;;21.02;17.50;;;17.80;99.90;;;;;;4960605;28;20050;-74
2023/05/03 12:23:48;;;;;;;22.38;18.08;;;17.90;99.90;;;;;;4962209;28;20035;-75
2023/05/03 12:26:18;;;;;;;18.23;15.07;;;18.10;99.90;;;;;;4962915;28;20034;-74
2023/05/03 12:28:45;;;;;;;17.85;15.52;;;18.40;99.90;;;;;;4962468;28;20026;-75
2023/05/03 12:31:11;;;;;;;21.65;15.35;;;18.50;99.90;;;;;;4961084;28;20066;-74
2023/05/03 12:33:36;;;;;;;16.15;13.07;;;18.60;99.90;;;;;;4960048;28;20105;-76
2023/05/03 12:36:03;;;;;;;16.85;12.85;;;18.60;99.90;;;;;;4958582;28;20031;-76